createdAt,value
2017-07-14T00:00:02.762Z,14.9
2017-07-14T00:15:03.747Z,14.9
2017-07-14T00:30:03.576Z,14.9
2017-07-14T00:45:03.326Z,14.9
2017-07-14T01:00:03.066Z,14.9
2017-07-14T01:15:02.671Z,14.9
2017-07-14T01:30:03.466Z,14.8
2017-07-14T01:45:03.124Z,14.8
2017-07-14T02:00:02.861Z,14.8
2017-07-14T02:15:03.673Z,14.8
2017-07-14T02:30:03.466Z,14.8
2017-07-14T02:45:03.043Z,14.8
2017-07-14T03:00:02.774Z,14.8
2017-07-14T03:15:03.483Z,14.8
2017-07-14T03:30:03.262Z,14.7
2017-07-14T03:45:03.208Z,14.7
2017-07-14T04:00:02.918Z,14.7
2017-07-14T04:15:02.629Z,14.7
2017-07-14T04:30:03.537Z,14.7
2017-07-14T04:45:03.171Z,14.7
2017-07-14T05:00:02.958Z,14.7
2017-07-14T05:15:02.592Z,14.6
2017-07-14T05:30:03.421Z,14.6
2017-07-14T05:45:03.392Z,14.6
2017-07-14T06:00:03.147Z,14.6
2017-07-14T06:15:03.868Z,14.6
2017-07-14T06:30:02.666Z,14.6
2017-07-14T06:45:03.877Z,14.6
2017-07-14T07:00:11.162Z,14.6
2017-07-14T07:15:03.011Z,14.6
2017-07-14T07:30:02.825Z,14.6
2017-07-14T07:45:03.651Z,14.6
2017-07-14T08:00:03.746Z,14.7
2017-07-14T08:15:03.589Z,14.7
2017-07-14T08:30:03.757Z,14.7
2017-07-14T08:45:03.764Z,14.8
2017-07-14T09:00:04.081Z,14.8
2017-07-14T09:15:03.573Z,14.8
2017-07-14T09:30:03.493Z,14.8
2017-07-14T09:45:03.282Z,14.9
2017-07-14T10:00:03.404Z,14.9
2017-07-14T10:15:03.107Z,15
2017-07-14T10:30:03.255Z,15.1
2017-07-14T10:45:03.209Z,15.1
2017-07-14T11:00:03.048Z,15.2
2017-07-14T11:15:02.708Z,15.3
2017-07-14T11:30:03.555Z,15.4
2017-07-14T11:45:03.593Z,15.4
2017-07-14T12:00:03.494Z,15.5
2017-07-14T12:15:03.603Z,15.5
2017-07-14T12:30:03.658Z,15.6
2017-07-14T12:45:03.239Z,15.6
2017-07-14T13:00:03.102Z,15.6
2017-07-14T13:15:02.662Z,15.6
2017-07-14T13:30:03.548Z,15.6
2017-07-14T13:45:03.265Z,15.6
2017-07-14T14:00:03.311Z,15.6
2017-07-14T14:15:48.639Z,15.6
2017-07-14T14:30:03.484Z,15.6
2017-07-14T14:45:03.222Z,15.6
2017-07-14T15:00:03.784Z,15.6
2017-07-14T15:15:03.918Z,15.6
2017-07-14T15:30:02.716Z,15.6
2017-07-14T15:45:03.514Z,15.6
2017-07-14T16:00:03.182Z,15.6
2017-07-14T16:15:02.955Z,15.6
2017-07-14T16:30:03.011Z,15.6
2017-07-14T16:45:03.015Z,15.6
2017-07-14T17:00:02.948Z,15.6
2017-07-14T17:15:02.729Z,15.6
2017-07-14T17:30:03.617Z,15.6
2017-07-14T17:45:03.642Z,15.5
2017-07-14T18:00:03.413Z,15.4
2017-07-14T18:15:03.097Z,15.4
2017-07-14T18:30:02.861Z,15.4
2017-07-14T18:45:03.426Z,15.4
2017-07-14T19:00:03.146Z,15.4
2017-07-14T19:15:02.848Z,15.3
2017-07-14T19:30:03.659Z,15.3
2017-07-14T19:45:03.372Z,15.2
2017-07-14T20:00:03.461Z,15.2
2017-07-14T20:15:03.099Z,15.2
2017-07-14T20:30:02.807Z,15.2
2017-07-14T20:45:03.447Z,15.2
2017-07-14T21:00:03.142Z,15.1
2017-07-14T21:15:02.847Z,15.1
2017-07-14T21:30:02.610Z,15.1
2017-07-14T21:45:03.257Z,15.1
2017-07-14T22:00:02.876Z,15.1
2017-07-14T22:15:03.474Z,15
2017-07-14T22:30:03.732Z,15
2017-07-14T22:45:03.401Z,15
2017-07-14T23:00:03.172Z,14.9
2017-07-14T23:15:03.202Z,14.9
2017-07-14T23:30:02.952Z,14.9
2017-07-14T23:45:03.258Z,14.9
